createdAt,value
2016-07-11T09:51:06.105Z,28.12
2016-07-11T10:04:33.469Z,28.25
2016-07-11T10:05:06.038Z,28.26
2016-07-11T10:06:06.390Z,28.30
2016-07-11T10:07:06.757Z,28.32
2016-07-11T10:08:06.152Z,28.32
2016-07-11T10:09:06.542Z,28.35
2016-07-11T10:10:06.939Z,28.36
2016-07-11T10:11:06.332Z,28.35
2016-07-11T10:12:06.716Z,28.36
2016-07-11T10:13:06.108Z,28.37
2016-07-11T10:14:06.547Z,28.37
2016-07-11T10:15:07.117Z,28.38
2016-07-11T10:16:06.601Z,28.37
2016-07-11T10:17:06.955Z,28.39
2016-07-11T10:18:06.673Z,28.41
2016-07-11T10:19:06.092Z,28.44
2016-07-11T10:20:06.427Z,28.46
2016-07-11T10:21:06.758Z,28.46
2016-07-11T10:22:06.218Z,28.46
2016-07-11T10:23:06.620Z,28.47
2016-07-11T10:24:06.058Z,28.47
2016-07-11T10:25:06.430Z,28.46
2016-07-11T10:26:06.801Z,28.46
2016-07-11T10:27:06.218Z,28.49
2016-07-11T10:28:06.555Z,28.50
2016-07-11T10:29:06.977Z,28.50
2016-07-11T10:30:06.339Z,28.50
2016-07-11T10:31:06.735Z,28.48
2016-07-11T10:32:06.108Z,28.46
2016-07-11T10:33:06.573Z,28.47
2016-07-11T10:34:05.991Z,28.47
2016-07-11T10:35:06.727Z,28.48
2016-07-11T10:36:06.603Z,28.48
2016-07-11T10:37:06.003Z,28.43
2016-07-11T10:38:06.353Z,28.44
2016-07-11T10:39:06.717Z,28.45
2016-07-11T10:40:06.329Z,28.43
2016-07-11T10:41:06.798Z,28.43
2016-07-11T10:42:06.202Z,28.45
2016-07-11T10:43:06.601Z,28.45
2016-07-11T10:44:06.164Z,28.45
2016-07-11T10:45:06.739Z,28.44
2016-07-11T10:46:06.276Z,28.49
2016-07-11T10:47:06.994Z,28.51
2016-07-11T10:48:06.688Z,28.53
2016-07-11T10:49:06.131Z,28.52
2016-07-11T10:50:06.986Z,28.53
2016-07-11T10:51:06.370Z,28.53
2016-07-11T10:52:06.803Z,28.51
2016-07-11T10:53:06.200Z,28.50
2016-07-11T10:54:06.769Z,28.74
2016-07-11T10:55:06.712Z,28.72
2016-07-11T10:56:06.870Z,28.70
2016-07-11T10:57:06.804Z,28.71
2016-07-11T10:58:06.271Z,28.70
2016-07-11T10:59:06.904Z,28.67
2016-07-11T11:00:06.245Z,28.66
2016-07-11T11:01:06.718Z,28.64
2016-07-11T11:02:06.134Z,28.69
2016-07-11T11:03:06.513Z,28.80
2016-07-11T11:04:06.891Z,28.87
2016-07-11T11:05:06.293Z,28.84
2016-07-11T11:06:06.689Z,28.89
2016-07-11T11:07:06.107Z,28.95
2016-07-11T11:08:06.533Z,29.03
2016-07-11T11:09:06.915Z,29.04
2016-07-11T11:10:06.420Z,29.02
2016-07-11T11:11:06.884Z,29.08
2016-07-11T11:12:06.325Z,29.05
2016-07-11T11:13:06.743Z,29.03
2016-07-11T11:14:06.147Z,28.92
2016-07-11T11:15:06.525Z,28.97
2016-07-11T11:16:06.894Z,28.94
2016-07-11T11:17:06.259Z,28.93
2016-07-11T11:18:06.600Z,28.94
2016-07-11T11:19:06.023Z,28.97
2016-07-11T11:20:06.359Z,28.96
2016-07-11T11:21:06.694Z,28.98
2016-07-11T11:22:06.068Z,28.94
2016-07-11T11:23:06.514Z,29.00
2016-07-11T11:24:06.906Z,28.96
2016-07-11T11:25:06.503Z,29.01
2016-07-11T11:26:06.857Z,29.00
2016-07-11T11:27:06.186Z,28.96
2016-07-11T11:28:06.654Z,28.99
2016-07-11T11:29:06.040Z,28.98
2016-07-11T11:30:06.362Z,29.03
2016-07-11T11:31:06.673Z,29.02
2016-07-11T11:32:06.034Z,28.93
2016-07-11T11:33:06.434Z,28.99
2016-07-11T11:34:06.802Z,28.95
2016-07-11T11:35:06.157Z,28.99
2016-07-11T11:36:06.522Z,29.01
2016-07-11T11:37:06.907Z,28.97
2016-07-11T11:38:06.302Z,29.00
2016-07-11T11:39:06.744Z,28.99
2016-07-11T11:40:06.144Z,28.98
2016-07-11T11:41:06.534Z,28.96
2016-07-11T11:42:06.074Z,28.95
2016-07-11T11:43:06.524Z,28.92
2016-07-11T11:44:06.914Z,28.80
2016-07-11T11:45:06.598Z,28.68
2016-07-11T11:46:06.022Z,28.65
2016-07-11T11:47:06.459Z,28.61
2016-07-11T11:48:06.821Z,28.58
2016-07-11T11:49:06.168Z,28.54
2016-07-11T11:50:06.527Z,28.55
2016-07-11T11:51:06.849Z,28.56
2016-07-11T11:52:06.274Z,28.55
2016-07-11T11:53:06.674Z,28.55
2016-07-11T11:54:06.036Z,28.54
2016-07-11T11:55:06.423Z,28.51
2016-07-11T11:56:06.843Z,28.54
2016-07-11T11:57:06.223Z,28.51
2016-07-11T11:58:06.617Z,28.56
2016-07-11T11:59:06.014Z,28.52
2016-07-11T12:00:06.336Z,28.54
2016-07-11T12:01:06.734Z,28.51
2016-07-11T12:02:06.110Z,28.51
2016-07-11T12:03:06.430Z,28.53
2016-07-11T12:04:06.741Z,28.52
2016-07-11T12:05:06.120Z,28.53
2016-07-11T12:06:06.551Z,28.51
2016-07-11T12:07:06.878Z,28.50
2016-07-11T12:08:06.242Z,28.46
2016-07-11T12:09:06.569Z,28.47
2016-07-11T12:10:06.039Z,28.49
2016-07-11T12:11:06.370Z,28.50
2016-07-11T12:12:06.768Z,28.54
2016-07-11T12:13:06.173Z,28.55
2016-07-11T12:14:06.513Z,28.54
2016-07-11T12:15:06.946Z,28.52
2016-07-11T12:16:06.294Z,28.55
2016-07-11T12:17:06.667Z,28.57
2016-07-11T12:18:06.054Z,28.55
2016-07-11T12:19:06.405Z,28.58
2016-07-11T12:20:06.909Z,28.58
2016-07-11T12:21:06.698Z,28.64
2016-07-11T12:22:06.350Z,28.63
2016-07-11T12:23:06.775Z,28.61
2016-07-11T12:24:06.155Z,28.64
2016-07-11T12:25:06.497Z,28.60
2016-07-11T12:26:06.833Z,28.61
2016-07-11T12:27:06.435Z,28.64
2016-07-11T12:28:06.762Z,28.64
2016-07-11T12:29:06.152Z,28.66
2016-07-11T12:30:06.591Z,28.68
2016-07-11T12:31:06.899Z,28.64
2016-07-11T12:32:06.633Z,28.61
2016-07-11T12:33:06.243Z,28.61
2016-07-11T12:34:06.714Z,28.61
2016-07-11T12:35:06.349Z,28.57
2016-07-11T12:36:06.724Z,28.65
2016-07-11T12:37:06.135Z,28.68
2016-07-11T12:38:06.537Z,28.79
2016-07-11T12:39:06.864Z,28.88
2016-07-11T12:40:06.242Z,28.86
2016-07-11T12:41:06.636Z,28.81
2016-07-11T12:42:06.228Z,28.86
2016-07-11T12:43:06.615Z,28.85
2016-07-11T12:44:06.025Z,28.81
2016-07-11T12:45:06.411Z,28.81
2016-07-11T12:46:06.806Z,28.82
2016-07-11T12:47:06.213Z,28.85
2016-07-11T12:48:06.770Z,28.91
2016-07-11T12:49:06.247Z,28.89
2016-07-11T12:50:06.588Z,28.88
2016-07-11T12:51:06.971Z,28.82
2016-07-11T12:52:06.471Z,28.92
2016-07-11T12:53:06.230Z,28.89
2016-07-11T12:54:06.815Z,28.92
2016-07-11T12:55:06.246Z,28.87
2016-07-11T12:56:06.628Z,28.87
2016-07-11T12:57:06.128Z,28.85
2016-07-11T12:58:06.511Z,28.84
2016-07-11T12:59:06.022Z,28.90
2016-07-11T13:00:06.355Z,28.88
2016-07-11T13:01:06.738Z,28.86
2016-07-11T13:02:06.202Z,28.83
2016-07-11T13:03:06.574Z,28.87
2016-07-11T13:04:06.886Z,28.87
2016-07-11T13:05:06.238Z,28.82
2016-07-11T13:06:06.557Z,28.85
2016-07-11T13:07:06.026Z,28.85
2016-07-11T13:08:06.364Z,28.91
2016-07-11T13:09:06.708Z,28.90
2016-07-11T13:10:06.126Z,28.83
2016-07-11T13:11:06.624Z,28.85
2016-07-11T13:12:06.029Z,28.87
2016-07-11T13:13:06.365Z,28.87
2016-07-11T13:14:06.703Z,28.91
2016-07-11T13:15:06.114Z,28.91
2016-07-11T13:16:06.449Z,28.93
2016-07-11T13:17:06.809Z,28.97
2016-07-11T13:18:06.211Z,28.93
2016-07-11T13:19:06.566Z,28.90
2016-07-11T13:20:06.913Z,28.87
2016-07-11T13:21:06.315Z,28.86
2016-07-11T13:22:06.699Z,28.83
2016-07-11T13:23:06.038Z,28.87
2016-07-11T13:24:06.414Z,28.86
2016-07-11T13:25:06.973Z,28.91
2016-07-11T13:26:08.615Z,28.89
2016-07-11T13:27:06.073Z,28.88
2016-07-11T13:28:06.537Z,28.90
2016-07-11T13:29:06.878Z,28.88
2016-07-11T13:30:06.349Z,28.92
2016-07-11T13:31:06.684Z,28.90
2016-07-11T13:32:06.050Z,28.91
2016-07-11T13:33:06.438Z,28.91
2016-07-11T13:34:06.765Z,28.92
2016-07-11T13:35:06.150Z,28.91
2016-07-11T13:36:06.801Z,28.92
2016-07-11T13:37:06.158Z,28.94
2016-07-11T13:38:06.787Z,28.93
2016-07-11T13:39:06.149Z,28.91
2016-07-11T13:40:06.535Z,28.91
2016-07-11T13:41:06.870Z,28.87
2016-07-11T13:42:06.325Z,28.86
2016-07-11T13:43:06.120Z,28.90
2016-07-11T13:44:06.459Z,28.89
2016-07-11T13:45:06.799Z,28.93
2016-07-11T13:46:06.339Z,28.86
2016-07-11T13:47:06.690Z,28.87
2016-07-11T13:48:06.101Z,28.89
2016-07-11T13:49:06.448Z,28.94
2016-07-11T13:50:06.783Z,28.90
2016-07-11T13:51:06.140Z,28.90
2016-07-11T13:52:06.499Z,28.89
2016-07-11T13:53:06.813Z,28.88
2016-07-11T13:54:06.142Z,28.86
2016-07-11T13:55:06.482Z,28.84
2016-07-11T13:56:06.830Z,28.85
2016-07-11T13:57:06.219Z,28.81
2016-07-11T13:58:06.539Z,28.89
2016-07-11T13:59:06.861Z,28.92
2016-07-11T14:00:06.235Z,28.87
2016-07-11T14:01:06.573Z,28.91
2016-07-11T14:02:06.897Z,28.93
2016-07-11T14:03:06.278Z,28.93
2016-07-11T14:04:06.596Z,28.93
2016-07-11T14:05:06.006Z,28.92
2016-07-11T14:06:06.357Z,28.92
2016-07-11T14:07:06.698Z,28.96
2016-07-11T14:08:06.051Z,28.93
2016-07-11T14:09:06.439Z,28.95
2016-07-11T14:10:06.827Z,28.90
2016-07-11T14:11:06.282Z,28.91
2016-07-11T14:12:06.768Z,28.89
2016-07-11T14:13:06.134Z,28.93
2016-07-11T14:14:06.515Z,28.94
2016-07-11T14:15:06.872Z,28.94
2016-07-11T14:16:06.235Z,28.94
2016-07-11T14:17:06.556Z,28.96
2016-07-11T14:18:06.886Z,28.99
2016-07-11T14:19:06.243Z,28.97
2016-07-11T14:20:06.589Z,28.98
2016-07-11T14:21:06.064Z,28.98
2016-07-11T14:22:06.399Z,28.95
2016-07-11T14:23:06.769Z,28.96
2016-07-11T14:24:06.092Z,28.99
2016-07-11T14:25:06.425Z,29.09
2016-07-11T14:26:06.799Z,29.14
2016-07-11T14:27:06.514Z,29.12
2016-07-11T14:28:06.891Z,29.04
2016-07-11T14:29:06.421Z,29.07
2016-07-11T14:30:06.868Z,29.09
2016-07-11T14:31:06.424Z,29.03
2016-07-11T14:32:06.823Z,29.06
2016-07-11T14:33:06.342Z,29.05
2016-07-11T14:34:06.693Z,29.08
2016-07-11T14:35:06.078Z,29.04
2016-07-11T14:36:06.662Z,29.06
2016-07-11T14:37:06.153Z,29.07
2016-07-11T14:38:06.548Z,29.05
2016-07-11T14:39:06.862Z,29.03
2016-07-11T14:40:06.248Z,29.03
2016-07-11T14:41:06.587Z,29.06
2016-07-11T14:42:06.905Z,29.05
2016-07-11T14:43:06.269Z,29.04
2016-07-11T14:45:06.736Z,29.08
2016-07-11T14:46:06.123Z,29.05
2016-07-11T14:47:06.468Z,29.08
2016-07-11T14:48:06.799Z,29.09
2016-07-11T14:49:06.161Z,29.16
2016-07-11T14:50:06.478Z,29.12
2016-07-11T14:51:06.852Z,29.06
2016-07-11T14:52:06.271Z,29.02
2016-07-11T14:53:06.596Z,29.01
2016-07-11T14:54:06.904Z,29.04
2016-07-11T14:55:06.293Z,29.05
2016-07-11T14:56:06.618Z,29.11
2016-07-11T14:57:06.012Z,29.11
2016-07-11T14:58:06.556Z,29.03
2016-07-11T14:59:06.903Z,29.05
2016-07-11T15:00:06.411Z,29.04
2016-07-11T15:01:06.132Z,29.04
2016-07-11T15:02:06.107Z,29.04
2016-07-11T15:03:06.566Z,29.03
2016-07-11T15:04:06.028Z,29.04
2016-07-11T15:05:06.420Z,29.06
2016-07-11T15:06:06.770Z,29.11
2016-07-11T15:07:06.201Z,29.13
2016-07-11T15:08:06.561Z,29.11
2016-07-11T15:09:06.118Z,29.07
2016-07-11T15:10:06.551Z,29.05
2016-07-11T15:11:06.948Z,29.09
2016-07-11T15:12:06.424Z,29.09
2016-07-11T15:13:06.802Z,29.13
2016-07-11T15:14:06.157Z,29.17
2016-07-11T15:15:06.527Z,29.19
2016-07-11T15:16:06.874Z,29.19
2016-07-11T15:17:06.358Z,29.17
2016-07-11T15:18:06.680Z,29.18
2016-07-11T15:19:06.248Z,29.17
2016-07-11T15:20:06.681Z,29.21
2016-07-11T15:21:06.331Z,29.21
2016-07-11T15:22:06.671Z,29.21
2016-07-11T15:23:06.040Z,29.20
2016-07-11T15:24:06.457Z,29.23
2016-07-11T15:25:06.808Z,29.20
2016-07-11T15:26:06.167Z,29.22
2016-07-11T15:27:06.486Z,29.23
2016-07-11T15:28:06.833Z,29.25
2016-07-11T15:29:06.232Z,29.20
2016-07-11T15:30:06.587Z,29.21
2016-07-11T15:31:06.084Z,29.19
2016-07-11T15:32:06.448Z,29.21
2016-07-11T15:33:06.773Z,29.21
2016-07-11T15:34:06.224Z,29.26
2016-07-11T15:35:06.644Z,29.25
2016-07-11T15:36:06.317Z,29.25
2016-07-11T15:37:06.693Z,29.28
2016-07-11T15:38:06.044Z,29.24
2016-07-11T15:39:06.681Z,29.24
2016-07-11T15:40:06.531Z,29.28
2016-07-11T15:41:06.116Z,29.32
2016-07-11T15:42:06.527Z,29.23
2016-07-11T15:43:06.860Z,29.27
2016-07-11T15:44:06.346Z,29.28
2016-07-11T15:45:06.862Z,29.28
2016-07-11T15:46:06.241Z,29.19
2016-07-11T15:47:06.583Z,29.13
2016-07-11T15:48:06.898Z,29.21
2016-07-11T15:49:06.290Z,29.22
2016-07-11T15:50:06.828Z,29.20
2016-07-11T15:51:06.449Z,29.19
2016-07-11T15:52:06.820Z,29.16
2016-07-11T15:53:06.346Z,29.19
2016-07-11T15:54:07.080Z,29.20
2016-07-11T15:55:06.781Z,29.21
2016-07-11T15:56:06.279Z,29.19
2016-07-11T15:57:06.882Z,29.31
2016-07-11T15:58:06.367Z,29.24
2016-07-11T15:59:06.726Z,29.27
2016-07-11T16:00:06.109Z,29.21
2016-07-11T16:01:06.521Z,29.21
2016-07-11T16:02:06.934Z,29.26
2016-07-11T16:03:06.323Z,29.23
2016-07-11T16:04:06.822Z,29.25
2016-07-11T16:05:06.346Z,29.22
2016-07-11T16:06:06.740Z,29.25
2016-07-11T16:07:06.109Z,29.23
2016-07-11T16:08:06.498Z,29.21
2016-07-11T16:09:06.820Z,29.20
2016-07-11T16:10:06.169Z,29.24
2016-07-11T16:11:06.633Z,29.19
2016-07-11T16:12:06.124Z,29.18
2016-07-11T16:13:06.518Z,29.26
2016-07-11T16:14:06.907Z,29.28
2016-07-11T16:15:06.343Z,29.32
2016-07-11T16:16:06.719Z,29.27
2016-07-11T16:17:06.117Z,29.31
